createdAt,value
2023-03-20T00:02:08.022Z,7.99
2023-03-20T00:05:20.072Z,7.96
2023-03-20T00:08:26.511Z,7.99
2023-03-20T00:11:34.637Z,7.98
2023-03-20T00:14:38.173Z,8.02
2023-03-20T00:17:41.839Z,8.04
2023-03-20T00:20:45.936Z,8.10
2023-03-20T00:23:50.954Z,8.18
2023-03-20T00:26:55.928Z,8.23
2023-03-20T00:29:59.989Z,8.27
2023-03-20T00:33:03.411Z,8.30
2023-03-20T00:36:07.618Z,8.32
2023-03-20T00:39:12.621Z,8.30
2023-03-20T00:42:23.115Z,8.31
2023-03-20T00:45:27.876Z,8.33
2023-03-20T00:48:32.507Z,8.30
2023-03-20T00:51:36.386Z,8.31
2023-03-20T00:54:41.310Z,8.33
2023-03-20T00:57:50.497Z,8.31
2023-03-20T01:00:54.468Z,8.28
2023-03-20T01:03:58.194Z,8.33
2023-03-20T01:07:01.703Z,8.28
2023-03-20T01:10:07.892Z,8.30
2023-03-20T01:13:22.840Z,8.20
2023-03-20T01:16:28.302Z,8.24
2023-03-20T01:19:31.828Z,8.14
2023-03-20T01:22:35.657Z,8.02
2023-03-20T01:25:41.603Z,7.99
2023-03-20T01:28:45.967Z,7.94
2023-03-20T01:31:50.661Z,7.92
2023-03-20T01:34:54.848Z,7.92
2023-03-20T01:37:58.510Z,7.89
2023-03-20T01:41:08.751Z,7.87
2023-03-20T01:44:22.546Z,7.75
2023-03-20T01:47:27.813Z,7.75
2023-03-20T01:50:34.315Z,7.70
2023-03-20T01:53:37.986Z,7.64
2023-03-20T01:56:49.510Z,7.64
2023-03-20T02:00:00.252Z,7.56
2023-03-20T02:03:05.732Z,7.55
2023-03-20T02:06:10.370Z,7.46
2023-03-20T02:09:14.535Z,7.51
2023-03-20T02:12:21.420Z,7.49
2023-03-20T02:15:28.560Z,7.47
2023-03-20T02:18:35.747Z,7.41
2023-03-20T02:22:32.681Z,7.31
2023-03-20T02:26:16.923Z,7.28
2023-03-20T02:30:24.387Z,7.28
2023-03-20T02:34:15.644Z,7.27
2023-03-20T02:38:10.725Z,7.26
2023-03-20T02:41:26.574Z,7.22
2023-03-20T02:44:42.718Z,7.24
2023-03-20T02:47:57.887Z,7.23
2023-03-20T02:51:08.838Z,7.21
2023-03-20T02:54:27.568Z,7.29
2023-03-20T02:57:47.852Z,7.25
2023-03-20T03:01:02.574Z,7.28
2023-03-20T03:04:14.360Z,7.31
2023-03-20T03:07:26.797Z,7.36
2023-03-20T03:10:38.463Z,7.30
2023-03-20T03:13:49.456Z,7.29
2023-03-20T03:16:56.407Z,7.29
2023-03-20T03:20:05.929Z,7.31
2023-03-20T03:23:19.854Z,7.28
2023-03-20T03:26:29.839Z,7.28
2023-03-20T03:29:39.920Z,7.35
2023-03-20T03:32:51.848Z,7.29
2023-03-20T03:36:07.025Z,7.29
2023-03-20T03:39:25.692Z,7.36
2023-03-20T03:42:37.093Z,7.35
2023-03-20T03:45:47.909Z,7.32
2023-03-20T03:48:58.589Z,7.31
2023-03-20T03:52:09.334Z,7.32
2023-03-20T03:55:17.533Z,7.30
2023-03-20T03:58:29.492Z,7.25
2023-03-20T04:01:36.061Z,7.22
2023-03-20T04:04:47.683Z,7.19
2023-03-20T04:08:00.665Z,7.14
2023-03-20T04:11:04.407Z,7.10
2023-03-20T04:14:09.352Z,7.16
2023-03-20T04:17:12.885Z,7.15
2023-03-20T04:20:17.487Z,7.13
2023-03-20T04:23:21.172Z,7.08
2023-03-20T04:26:24.790Z,7.12
2023-03-20T04:29:29.870Z,7.20
2023-03-20T04:32:33.428Z,7.14
2023-03-20T04:35:37.179Z,7.13
2023-03-20T04:38:41.366Z,7.14
2023-03-20T04:41:44.837Z,7.13
2023-03-20T04:44:49.668Z,7.09
2023-03-20T04:47:53.219Z,7.09
2023-03-20T04:50:57.501Z,7.13
2023-03-20T04:54:01.166Z,7.16
2023-03-20T04:57:05.022Z,7.14
2023-03-20T05:00:12.252Z,7.12
2023-03-20T05:03:15.707Z,7.10
2023-03-20T05:06:19.285Z,7.09
2023-03-20T05:09:22.875Z,7.12
2023-03-20T05:12:27.295Z,7.09
2023-03-20T05:15:32.264Z,7.10
2023-03-20T05:18:35.758Z,7.11
2023-03-20T05:21:39.290Z,7.10
2023-03-20T05:24:42.933Z,7.11
2023-03-20T05:27:47.840Z,7.10
2023-03-20T05:30:52.736Z,7.05
2023-03-20T05:33:57.381Z,7.09
2023-03-20T05:37:00.947Z,7.10
2023-03-20T05:40:05.177Z,7.10
2023-03-20T05:43:09.085Z,7.14
2023-03-20T05:46:14.097Z,7.14
2023-03-20T05:49:17.897Z,7.14
2023-03-20T05:52:21.425Z,7.14
2023-03-20T05:55:24.894Z,7.22
2023-03-20T05:58:28.399Z,7.21
2023-03-20T06:01:34.068Z,7.18
2023-03-20T06:04:37.686Z,7.20
2023-03-20T06:07:41.239Z,7.18
2023-03-20T06:10:44.893Z,7.19
2023-03-20T06:13:49.486Z,7.21
2023-03-20T06:16:55.269Z,7.26
2023-03-20T06:19:59.670Z,7.27
2023-03-20T06:23:03.280Z,7.31
2023-03-20T06:26:08.231Z,7.33
2023-03-20T06:29:11.778Z,7.33
2023-03-20T06:32:17.678Z,7.42
2023-03-20T06:35:21.369Z,7.35
2023-03-20T06:38:24.980Z,7.37
2023-03-20T06:41:34.719Z,7.40
2023-03-20T06:44:38.496Z,7.45
2023-03-20T06:47:43.701Z,7.50
2023-03-20T06:50:48.037Z,7.71
2023-03-20T06:53:51.557Z,7.54
2023-03-20T06:56:56.807Z,7.53
2023-03-20T07:00:00.353Z,7.58
2023-03-20T07:03:06.007Z,7.60
2023-03-20T07:06:11.677Z,7.66
2023-03-20T07:09:17.566Z,7.58
2023-03-20T07:12:21.075Z,7.59
2023-03-20T07:15:25.441Z,7.69
2023-03-20T07:18:30.496Z,7.67
2023-03-20T07:21:34.324Z,7.55
2023-03-20T07:24:38.102Z,7.59
2023-03-20T07:27:43.026Z,7.63
2023-03-20T07:30:46.550Z,7.67
2023-03-20T07:33:51.824Z,7.69
2023-03-20T07:36:55.483Z,7.67
2023-03-20T07:39:59.083Z,7.61
2023-03-20T07:43:02.550Z,7.67
2023-03-20T07:46:09.296Z,7.73
2023-03-20T07:49:14.482Z,7.80
2023-03-20T07:52:18.215Z,7.74
2023-03-20T07:55:21.966Z,7.91
2023-03-20T07:58:25.548Z,7.82
2023-03-20T08:01:29.151Z,7.80
2023-03-20T08:04:34.160Z,7.87
2023-03-20T08:07:37.773Z,7.81
2023-03-20T08:10:41.594Z,7.91
2023-03-20T08:13:45.185Z,7.82
2023-03-20T08:16:56.343Z,7.84
2023-03-20T08:20:08.961Z,7.82
2023-03-20T08:23:12.483Z,7.92
2023-03-20T08:26:16.012Z,8.03
2023-03-20T08:29:19.671Z,7.97
2023-03-20T08:32:23.183Z,7.97
2023-03-20T08:35:33.393Z,7.98
2023-03-20T08:38:37.569Z,8.10
2023-03-20T08:41:43.735Z,8.06
2023-03-20T08:44:48.449Z,8.03
2023-03-20T08:47:52.073Z,7.98
2023-03-20T08:50:56.974Z,8.02
2023-03-20T08:54:00.694Z,8.06
2023-03-20T08:57:04.246Z,8.07
2023-03-20T09:00:12.130Z,8.17
2023-03-20T09:03:18.193Z,8.14
2023-03-20T09:06:23.281Z,8.20
2023-03-20T09:09:29.590Z,8.35
2023-03-20T09:12:33.526Z,8.34
2023-03-20T09:15:37.829Z,8.52
2023-03-20T09:18:41.907Z,8.55
2023-03-20T09:21:46.849Z,8.44
2023-03-20T09:24:50.468Z,8.52
2023-03-20T09:27:55.357Z,8.63
2023-03-20T09:31:00.946Z,8.74
2023-03-20T09:34:04.677Z,8.72
2023-03-20T09:37:09.779Z,8.80
2023-03-20T09:40:27.563Z,8.76
2023-03-20T09:43:49.969Z,8.88
2023-03-20T09:47:22.403Z,9.04
2023-03-20T09:50:35.678Z,9.07
2023-03-20T09:53:49.184Z,9.03
2023-03-20T09:56:55.943Z,9.07
2023-03-20T10:00:07.445Z,9.16
2023-03-20T10:03:21.381Z,9.25
2023-03-20T10:06:25.561Z,9.31
2023-03-20T10:09:31.928Z,9.37
2023-03-20T10:12:56.201Z,9.41
2023-03-20T10:16:08.290Z,9.56
2023-03-20T10:19:24.900Z,9.32
2023-03-20T10:22:35.955Z,9.29
2023-03-20T10:25:50.886Z,9.41
2023-03-20T10:29:00.260Z,9.26
2023-03-20T10:32:14.548Z,9.26
2023-03-20T10:35:29.832Z,9.17
2023-03-20T10:38:44.111Z,9.22
2023-03-20T10:41:56.181Z,9.26
2023-03-20T10:45:06.281Z,9.42
2023-03-20T10:48:21.954Z,9.25
2023-03-20T10:51:40.321Z,9.19
2023-03-20T10:54:48.105Z,9.72
2023-03-20T10:58:03.398Z,9.57
2023-03-20T11:01:07.728Z,9.92
2023-03-20T11:04:12.565Z,9.75
2023-03-20T11:07:26.599Z,9.97
2023-03-20T11:10:33.396Z,9.92
2023-03-20T11:13:43.235Z,9.89
2023-03-20T11:16:51.484Z,10.08
2023-03-20T11:19:55.030Z,10.22
2023-03-20T11:23:06.068Z,10.40
2023-03-20T11:26:17.059Z,10.40
2023-03-20T11:29:30.553Z,10.41
2023-03-20T11:32:37.217Z,10.52
2023-03-20T11:35:46.821Z,10.85
2023-03-20T11:38:53.521Z,10.57
2023-03-20T11:41:59.435Z,10.70
2023-03-20T11:45:08.634Z,10.55
2023-03-20T11:48:21.580Z,10.39
2023-03-20T11:51:25.229Z,10.31
2023-03-20T11:54:31.758Z,10.47
2023-03-20T11:57:40.448Z,10.56
2023-03-20T12:00:52.479Z,10.47
2023-03-20T12:04:05.476Z,10.81
2023-03-20T12:07:17.733Z,10.94
2023-03-20T12:10:23.235Z,10.87
2023-03-20T12:13:33.254Z,10.89
2023-03-20T12:16:40.117Z,10.87
2023-03-20T12:19:47.215Z,10.82
2023-03-20T12:23:01.232Z,10.74
2023-03-20T12:26:12.785Z,10.59
2023-03-20T12:29:27.531Z,10.31
2023-03-20T12:32:42.631Z,10.29
2023-03-20T12:35:53.248Z,10.21
2023-03-20T12:38:56.956Z,10.16
2023-03-20T12:42:16.422Z,10.24
2023-03-20T12:45:44.136Z,9.99
2023-03-20T12:49:06.911Z,10.14
2023-03-20T12:52:22.364Z,10.10
2023-03-20T12:55:42.113Z,10.06
2023-03-20T12:58:51.881Z,10.09
2023-03-20T13:02:04.766Z,10.10
2023-03-20T13:05:34.570Z,9.95
2023-03-20T13:09:18.552Z,9.98
2023-03-20T13:12:39.669Z,9.79
2023-03-20T13:16:04.080Z,9.93
2023-03-20T13:19:20.136Z,10.08
2023-03-20T13:22:37.627Z,9.87
2023-03-20T13:26:10.778Z,9.84
2023-03-20T13:29:27.726Z,9.93
2023-03-20T13:32:48.270Z,9.77
2023-03-20T13:36:04.533Z,9.71
2023-03-20T13:39:17.161Z,9.76
2023-03-20T13:42:28.842Z,9.84
2023-03-20T13:45:39.521Z,9.87
2023-03-20T13:48:45.080Z,10.00
2023-03-20T13:51:56.060Z,10.02
2023-03-20T13:55:19.353Z,9.93
2023-03-20T13:58:46.685Z,9.94
2023-03-20T14:02:00.892Z,9.93
2023-03-20T14:05:12.686Z,9.90
2023-03-20T14:08:33.410Z,10.15
2023-03-20T14:11:39.563Z,10.23
2023-03-20T14:14:51.076Z,10.27
2023-03-20T14:17:54.924Z,10.16
2023-03-20T14:21:01.890Z,10.19
2023-03-20T14:24:08.880Z,10.22
2023-03-20T14:27:29.858Z,10.24
2023-03-20T14:30:44.947Z,10.13
2023-03-20T14:34:01.592Z,10.12
2023-03-20T14:37:06.824Z,10.08
2023-03-20T14:40:20.226Z,9.88
2023-03-20T14:43:50.297Z,9.86
2023-03-20T14:47:03.635Z,9.85
2023-03-20T14:50:19.262Z,9.72
2023-03-20T14:53:26.074Z,9.68
2023-03-20T14:56:34.342Z,9.63
2023-03-20T14:59:39.657Z,9.61
2023-03-20T15:02:49.406Z,9.56
2023-03-20T15:06:00.515Z,9.43
2023-03-20T15:09:11.058Z,9.45
2023-03-20T15:12:21.327Z,9.43
2023-03-20T15:15:31.653Z,9.27
2023-03-20T15:18:41.322Z,9.19
2023-03-20T15:21:49.116Z,9.12
2023-03-20T15:24:57.943Z,8.99
2023-03-20T15:28:05.796Z,8.96
2023-03-20T15:31:25.933Z,8.96
2023-03-20T15:34:34.296Z,8.92
2023-03-20T15:37:38.496Z,8.81
2023-03-20T15:40:50.464Z,8.78
2023-03-20T15:43:55.329Z,8.75
2023-03-20T15:47:03.386Z,8.83
2023-03-20T15:50:15.788Z,8.74
2023-03-20T15:53:24.932Z,8.70
2023-03-20T15:56:29.039Z,8.69
2023-03-20T15:59:35.503Z,8.79
2023-03-20T16:02:41.227Z,8.81
2023-03-20T16:05:46.595Z,8.72
2023-03-20T16:09:00.703Z,8.82
2023-03-20T16:12:16.033Z,8.92
2023-03-20T16:15:31.513Z,8.87
2023-03-20T16:18:40.234Z,8.77
2023-03-20T16:21:50.136Z,8.80
2023-03-20T16:25:00.010Z,8.66
2023-03-20T16:28:07.221Z,8.67
2023-03-20T16:31:17.203Z,8.74
2023-03-20T16:34:26.532Z,8.66
2023-03-20T16:37:33.801Z,8.65
2023-03-20T16:40:38.955Z,8.59
2023-03-20T16:43:48.039Z,8.53
2023-03-20T16:47:01.957Z,8.44
2023-03-20T16:50:18.800Z,8.32
2023-03-20T16:53:23.553Z,8.35
2023-03-20T16:56:33.960Z,8.26
2023-03-20T16:59:40.904Z,8.21
2023-03-20T17:02:52.131Z,8.18
2023-03-20T17:06:00.148Z,8.03
2023-03-20T17:09:18.969Z,8.01
2023-03-20T17:12:25.609Z,8.02
2023-03-20T17:15:36.818Z,7.95
2023-03-20T17:18:40.355Z,8.00
2023-03-20T17:21:46.477Z,7.99
2023-03-20T17:24:50.272Z,7.91
2023-03-20T17:27:54.039Z,7.87
2023-03-20T17:30:57.593Z,7.88
2023-03-20T17:34:01.114Z,7.82
2023-03-20T17:37:06.567Z,7.78
2023-03-20T17:40:18.622Z,7.81
2023-03-20T17:43:22.336Z,7.76
2023-03-20T17:46:29.202Z,7.70
2023-03-20T17:49:32.932Z,7.64
2023-03-20T17:52:39.974Z,7.49
2023-03-20T17:55:43.575Z,7.46
2023-03-20T17:58:47.097Z,7.49
2023-03-20T18:01:50.992Z,7.49
2023-03-20T18:04:54.903Z,7.48
2023-03-20T18:07:59.856Z,7.39
2023-03-20T18:11:04.279Z,7.45
2023-03-20T18:14:08.428Z,7.41
2023-03-20T18:17:14.410Z,7.39
2023-03-20T18:20:27.362Z,7.37
2023-03-20T18:23:32.214Z,7.37
2023-03-20T18:26:35.799Z,7.42
2023-03-20T18:29:39.612Z,7.40
2023-03-20T18:32:43.224Z,7.29
2023-03-20T18:35:47.057Z,7.29
2023-03-20T18:38:53.032Z,7.27
2023-03-20T18:41:56.629Z,7.23
2023-03-20T18:45:00.195Z,7.20
2023-03-20T18:48:03.996Z,7.16
2023-03-20T18:51:07.667Z,7.22
2023-03-20T18:54:12.746Z,7.20
2023-03-20T18:57:17.648Z,7.24
2023-03-20T19:00:27.070Z,7.23
2023-03-20T19:03:30.588Z,7.22
2023-03-20T19:06:34.106Z,7.25
2023-03-20T19:09:39.008Z,7.16
2023-03-20T19:12:42.526Z,7.13
2023-03-20T19:15:47.635Z,7.15
2023-03-20T19:18:51.688Z,7.12
2023-03-20T19:21:55.238Z,7.09
2023-03-20T19:25:00.140Z,7.13
2023-03-20T19:28:05.420Z,7.04
2023-03-20T19:31:10.363Z,7.01
2023-03-20T19:34:44.544Z,6.99
2023-03-20T19:37:37.351Z,7.04
2023-03-20T19:40:44.703Z,7.02
2023-03-20T19:43:53.196Z,7.02
2023-03-20T19:46:57.320Z,6.99
2023-03-20T19:50:00.826Z,6.99
2023-03-20T19:53:08.429Z,6.98
2023-03-20T19:56:16.354Z,6.93
2023-03-20T19:59:21.104Z,6.91
2023-03-20T20:02:24.845Z,6.91
2023-03-20T20:05:31.571Z,6.89
2023-03-20T20:08:47.513Z,6.90
2023-03-20T20:11:53.469Z,6.87
2023-03-20T20:14:57.886Z,6.86
2023-03-20T20:18:01.683Z,6.90
2023-03-20T20:21:59.751Z,6.83
2023-03-20T20:24:29.606Z,6.72
2023-03-20T20:27:34.602Z,6.67
2023-03-20T20:30:39.221Z,6.77
2023-03-20T20:33:43.107Z,6.72
2023-03-20T20:40:13.638Z,6.70
2023-03-20T20:43:43.867Z,6.65
2023-03-20T20:46:42.260Z,6.69
2023-03-20T20:49:48.205Z,6.62
2023-03-20T20:52:52.399Z,6.67
2023-03-20T20:55:55.951Z,6.63
2023-03-20T20:59:01.064Z,6.63
2023-03-20T21:02:10.576Z,6.57
2023-03-20T21:05:17.200Z,6.64
2023-03-20T21:08:20.825Z,6.62
2023-03-20T21:11:25.332Z,6.61
2023-03-20T21:14:30.893Z,6.62
2023-03-20T21:17:39.197Z,6.61
2023-03-20T21:20:46.148Z,6.60
2023-03-20T21:23:51.176Z,6.61
2023-03-20T21:26:55.865Z,6.56
2023-03-20T21:30:01.863Z,6.60
2023-03-20T21:33:05.760Z,6.63
2023-03-20T21:36:10.153Z,6.56
2023-03-20T21:39:14.983Z,6.55
2023-03-20T21:42:18.961Z,6.56
2023-03-20T21:46:15.310Z,6.58
2023-03-20T21:49:31.732Z,6.59
2023-03-20T21:53:09.236Z,6.56
2023-03-20T21:56:29.683Z,6.55
2023-03-20T21:59:43.058Z,6.59
2023-03-20T22:02:31.776Z,6.61
2023-03-20T22:09:52.196Z,6.61
2023-03-20T22:13:13.806Z,6.66
2023-03-20T22:27:01.660Z,6.60
2023-03-20T22:33:58.427Z,6.70
2023-03-20T22:37:23.177Z,6.64
2023-03-20T22:40:27.234Z,6.69
2023-03-20T22:44:17.478Z,6.60
2023-03-20T22:46:45.374Z,6.69
2023-03-20T22:49:49.684Z,6.64
2023-03-20T22:52:55.637Z,6.66
2023-03-20T22:55:59.753Z,6.72
2023-03-20T22:59:03.291Z,6.72
2023-03-20T23:02:06.885Z,6.70
2023-03-20T23:05:11.880Z,6.66
2023-03-20T23:08:17.008Z,6.71
2023-03-20T23:11:20.744Z,6.77
2023-03-20T23:14:24.998Z,6.77
2023-03-20T23:17:30.121Z,6.73
2023-03-20T23:20:33.731Z,6.74
2023-03-20T23:23:39.300Z,6.77
2023-03-20T23:26:42.803Z,6.78
2023-03-20T23:29:46.469Z,6.69
2023-03-20T23:32:50.044Z,6.72
2023-03-20T23:36:12.529Z,6.72
2023-03-20T23:39:23.515Z,6.75
2023-03-20T23:42:30.687Z,6.76
2023-03-20T23:45:34.618Z,6.80
2023-03-20T23:48:39.307Z,6.83
2023-03-20T23:51:43.689Z,6.78
2023-03-20T23:54:48.657Z,6.80
2023-03-20T23:57:52.339Z,6.78
